sensor_id;sensor_type;location;lat;lon;timestamp;P1;durP1;ratioP1;P2;durP2;ratioP2
53245;SDS011;39569;51.090;-1.786;2023-10-13T00:01:01;0.95;;;0.95;;
53245;SDS011;39569;51.090;-1.786;2023-10-13T00:03:31;0.80;;;0.80;;
53245;SDS011;39569;51.090;-1.786;2023-10-13T00:05:58;0.73;;;0.73;;
53245;SDS011;39569;51.090;-1.786;2023-10-13T00:08:28;1.75;;;1.52;;
53245;SDS011;39569;51.090;-1.786;2023-10-13T00:10:55;2.13;;;2.03;;
53245;SDS011;39569;51.090;-1.786;2023-10-13T00:13:25;2.95;;;2.45;;
53245;SDS011;39569;51.090;-1.786;2023-10-13T00:15:53;6.82;;;3.08;;
53245;SDS011;39569;51.090;-1.786;2023-10-13T00:18:24;4.55;;;3.15;;
53245;SDS011;39569;51.090;-1.786;2023-10-13T00:20:53;6.75;;;4.68;;
53245;SDS011;39569;51.090;-1.786;2023-10-13T00:23:22;10.38;;;4.97;;
53245;SDS011;39569;51.090;-1.786;2023-10-13T00:25:52;16.35;;;4.70;;
53245;SDS011;39569;51.090;-1.786;2023-10-13T00:28:24;6.43;;;5.85;;
53245;SDS011;39569;51.090;-1.786;2023-10-13T00:30:51;12.35;;;6.13;;
53245;SDS011;39569;51.090;-1.786;2023-10-13T00:33:24;12.82;;;5.95;;
53245;SDS011;39569;51.090;-1.786;2023-10-13T00:35:50;15.02;;;7.13;;
53245;SDS011;39569;51.090;-1.786;2023-10-13T00:38:20;13.07;;;7.05;;
53245;SDS011;39569;51.090;-1.786;2023-10-13T00:40:48;12.20;;;7.45;;
53245;SDS011;39569;51.090;-1.786;2023-10-13T00:43:19;15.75;;;8.98;;
53245;SDS011;39569;51.090;-1.786;2023-10-13T00:46:00;20.60;;;9.65;;
53245;SDS011;39569;51.090;-1.786;2023-10-13T00:48:38;11.98;;;7.85;;
53245;SDS011;39569;51.090;-1.786;2023-10-13T00:51:12;17.20;;;8.95;;
53245;SDS011;39569;51.090;-1.786;2023-10-13T00:53:58;15.52;;;7.68;;
53245;SDS011;39569;51.090;-1.786;2023-10-13T00:56:27;14.63;;;8.20;;
53245;SDS011;39569;51.090;-1.786;2023-10-13T00:58:55;21.30;;;8.80;;
53245;SDS011;39569;51.090;-1.786;2023-10-13T01:01:23;17.50;;;9.98;;
53245;SDS011;39569;51.090;-1.786;2023-10-13T01:03:55;15.50;;;9.07;;
53245;SDS011;39569;51.090;-1.786;2023-10-13T01:06:24;14.13;;;8.25;;
53245;SDS011;39569;51.090;-1.786;2023-10-13T01:08:57;18.88;;;11.30;;
53245;SDS011;39569;51.090;-1.786;2023-10-13T01:11:37;16.17;;;8.97;;
53245;SDS011;39569;51.090;-1.786;2023-10-13T01:14:03;19.23;;;8.70;;
53245;SDS011;39569;51.090;-1.786;2023-10-13T01:16:31;13.90;;;9.15;;
53245;SDS011;39569;51.090;-1.786;2023-10-13T01:18:57;11.07;;;8.32;;
53245;SDS011;39569;51.090;-1.786;2023-10-13T01:21:25;12.00;;;8.80;;
53245;SDS011;39569;51.090;-1.786;2023-10-13T01:23:54;18.67;;;10.02;;
53245;SDS011;39569;51.090;-1.786;2023-10-13T01:26:20;24.27;;;8.60;;
53245;SDS011;39569;51.090;-1.786;2023-10-13T01:28:49;30.65;;;10.35;;
53245;SDS011;39569;51.090;-1.786;2023-10-13T01:31:17;17.38;;;10.45;;
53245;SDS011;39569;51.090;-1.786;2023-10-13T01:34:00;25.88;;;10.18;;
53245;SDS011;39569;51.090;-1.786;2023-10-13T01:36:27;18.77;;;9.48;;
53245;SDS011;39569;51.090;-1.786;2023-10-13T01:39:01;15.50;;;10.52;;
53245;SDS011;39569;51.090;-1.786;2023-10-13T01:41:28;25.65;;;10.98;;
53245;SDS011;39569;51.090;-1.786;2023-10-13T01:43:56;18.58;;;10.70;;
53245;SDS011;39569;51.090;-1.786;2023-10-13T01:46:23;14.95;;;10.35;;
53245;SDS011;39569;51.090;-1.786;2023-10-13T01:48:49;24.33;;;12.80;;
53245;SDS011;39569;51.090;-1.786;2023-10-13T01:51:19;22.13;;;12.50;;
53245;SDS011;39569;51.090;-1.786;2023-10-13T01:53:48;18.95;;;11.57;;
53245;SDS011;39569;51.090;-1.786;2023-10-13T01:56:22;20.00;;;11.70;;
53245;SDS011;39569;51.090;-1.786;2023-10-13T01:58:50;30.75;;;13.32;;
53245;SDS011;39569;51.090;-1.786;2023-10-13T02:01:17;15.65;;;11.18;;
53245;SDS011;39569;51.090;-1.786;2023-10-13T02:03:51;19.02;;;12.77;;
53245;SDS011;39569;51.090;-1.786;2023-10-13T02:06:28;22.15;;;12.98;;
53245;SDS011;39569;51.090;-1.786;2023-10-13T02:08:58;23.13;;;12.02;;
53245;SDS011;39569;51.090;-1.786;2023-10-13T02:11:31;14.68;;;11.73;;
53245;SDS011;39569;51.090;-1.786;2023-10-13T02:13:58;24.05;;;13.73;;
53245;SDS011;39569;51.090;-1.786;2023-10-13T02:16:25;23.50;;;14.02;;
53245;SDS011;39569;51.090;-1.786;2023-10-13T02:18:52;25.17;;;12.27;;
53245;SDS011;39569;51.090;-1.786;2023-10-13T02:21:18;26.58;;;12.73;;
53245;SDS011;39569;51.090;-1.786;2023-10-13T02:23:45;22.13;;;12.75;;
53245;SDS011;39569;51.090;-1.786;2023-10-13T02:26:11;28.85;;;13.40;;
53245;SDS011;39569;51.090;-1.786;2023-10-13T02:28:41;21.65;;;14.35;;
53245;SDS011;39569;51.090;-1.786;2023-10-13T02:31:09;24.88;;;11.32;;
53245;SDS011;39569;51.090;-1.786;2023-10-13T02:33:37;26.63;;;12.07;;
53245;SDS011;39569;51.090;-1.786;2023-10-13T02:36:10;26.70;;;12.88;;
53245;SDS011;39569;51.090;-1.786;2023-10-13T02:38:37;26.95;;;13.60;;
53245;SDS011;39569;51.090;-1.786;2023-10-13T02:41:11;27.80;;;13.45;;
53245;SDS011;39569;51.090;-1.786;2023-10-13T02:43:45;15.25;;;12.45;;
53245;SDS011;39569;51.090;-1.786;2023-10-13T02:46:11;18.77;;;11.18;;
53245;SDS011;39569;51.090;-1.786;2023-10-13T02:48:41;21.95;;;10.27;;
53245;SDS011;39569;51.090;-1.786;2023-10-13T02:51:08;23.23;;;12.13;;
53245;SDS011;39569;51.090;-1.786;2023-10-13T02:53:42;23.30;;;12.88;;
53245;SDS011;39569;51.090;-1.786;2023-10-13T02:56:11;39.58;;;12.20;;
53245;SDS011;39569;51.090;-1.786;2023-10-13T02:58:39;32.08;;;12.30;;
53245;SDS011;39569;51.090;-1.786;2023-10-13T03:01:10;20.42;;;11.98;;
53245;SDS011;39569;51.090;-1.786;2023-10-13T03:03:47;26.95;;;11.93;;
53245;SDS011;39569;51.090;-1.786;2023-10-13T03:06:15;20.33;;;12.05;;
53245;SDS011;39569;51.090;-1.786;2023-10-13T03:08:46;22.02;;;11.52;;
53245;SDS011;39569;51.090;-1.786;2023-10-13T03:11:12;25.70;;;11.95;;
53245;SDS011;39569;51.090;-1.786;2023-10-13T03:13:39;20.88;;;11.98;;
53245;SDS011;39569;51.090;-1.786;2023-10-13T03:16:14;19.73;;;11.30;;
53245;SDS011;39569;51.090;-1.786;2023-10-13T03:18:45;24.50;;;11.73;;
53245;SDS011;39569;51.090;-1.786;2023-10-13T03:21:22;23.55;;;10.90;;
53245;SDS011;39569;51.090;-1.786;2023-10-13T03:23:56;30.05;;;11.75;;
53245;SDS011;39569;51.090;-1.786;2023-10-13T03:26:29;15.55;;;11.18;;
53245;SDS011;39569;51.090;-1.786;2023-10-13T03:29:00;19.27;;;11.57;;
53245;SDS011;39569;51.090;-1.786;2023-10-13T03:31:30;15.02;;;10.48;;
53245;SDS011;39569;51.090;-1.786;2023-10-13T03:34:02;22.10;;;12.00;;
53245;SDS011;39569;51.090;-1.786;2023-10-13T03:36:31;16.60;;;11.23;;
53245;SDS011;39569;51.090;-1.786;2023-10-13T03:39:15;24.63;;;11.38;;
53245;SDS011;39569;51.090;-1.786;2023-10-13T03:41:42;23.80;;;10.50;;
53245;SDS011;39569;51.090;-1.786;2023-10-13T03:44:10;23.50;;;11.50;;
53245;SDS011;39569;51.090;-1.786;2023-10-13T03:46:47;29.95;;;11.70;;
53245;SDS011;39569;51.090;-1.786;2023-10-13T03:49:14;21.00;;;10.98;;
53245;SDS011;39569;51.090;-1.786;2023-10-13T03:51:46;18.67;;;11.63;;
53245;SDS011;39569;51.090;-1.786;2023-10-13T03:54:14;16.27;;;10.13;;
53245;SDS011;39569;51.090;-1.786;2023-10-13T03:56:42;27.45;;;11.23;;
53245;SDS011;39569;51.090;-1.786;2023-10-13T03:59:10;19.38;;;9.68;;
53245;SDS011;39569;51.090;-1.786;2023-10-13T04:01:44;25.38;;;11.50;;
53245;SDS011;39569;51.090;-1.786;2023-10-13T04:04:14;20.58;;;10.52;;
53245;SDS011;39569;51.090;-1.786;2023-10-13T04:06:54;16.88;;;8.98;;
53245;SDS011;39569;51.090;-1.786;2023-10-13T04:09:38;30.67;;;11.70;;
53245;SDS011;39569;51.090;-1.786;2023-10-13T04:12:40;17.38;;;9.88;;
53245;SDS011;39569;51.090;-1.786;2023-10-13T04:15:24;23.17;;;9.25;;
53245;SDS011;39569;51.090;-1.786;2023-10-13T04:18:01;23.92;;;9.82;;
53245;SDS011;39569;51.090;-1.786;2023-10-13T04:20:40;26.52;;;10.40;;
53245;SDS011;39569;51.090;-1.786;2023-10-13T04:23:11;21.35;;;10.02;;
53245;SDS011;39569;51.090;-1.786;2023-10-13T04:25:44;20.27;;;9.88;;
53245;SDS011;39569;51.090;-1.786;2023-10-13T04:28:34;26.88;;;10.05;;
53245;SDS011;39569;51.090;-1.786;2023-10-13T04:31:02;24.13;;;8.63;;
53245;SDS011;39569;51.090;-1.786;2023-10-13T04:33:39;20.40;;;8.70;;
53245;SDS011;39569;51.090;-1.786;2023-10-13T04:36:19;23.08;;;10.10;;
53245;SDS011;39569;51.090;-1.786;2023-10-13T04:39:02;20.45;;;9.40;;
53245;SDS011;39569;51.090;-1.786;2023-10-13T04:41:36;26.05;;;10.05;;
53245;SDS011;39569;51.090;-1.786;2023-10-13T04:44:04;35.92;;;8.75;;
53245;SDS011;39569;51.090;-1.786;2023-10-13T04:46:52;21.27;;;9.23;;
53245;SDS011;39569;51.090;-1.786;2023-10-13T04:49:33;31.88;;;9.40;;
53245;SDS011;39569;51.090;-1.786;2023-10-13T04:52:18;25.77;;;10.40;;
53245;SDS011;39569;51.090;-1.786;2023-10-13T04:57:42;18.42;;;9.55;;
53245;SDS011;39569;51.090;-1.786;2023-10-13T05:00:12;23.10;;;10.23;;
53245;SDS011;39569;51.090;-1.786;2023-10-13T05:02:57;28.00;;;8.43;;
53245;SDS011;39569;51.090;-1.786;2023-10-13T05:05:42;30.70;;;10.00;;
53245;SDS011;39569;51.090;-1.786;2023-10-13T05:08:33;32.15;;;11.30;;
53245;SDS011;39569;51.090;-1.786;2023-10-13T05:11:17;30.88;;;11.65;;
53245;SDS011;39569;51.090;-1.786;2023-10-13T05:14:01;23.98;;;11.13;;
53245;SDS011;39569;51.090;-1.786;2023-10-13T05:16:45;40.97;;;10.23;;
53245;SDS011;39569;51.090;-1.786;2023-10-13T05:19:29;25.13;;;10.10;;
53245;SDS011;39569;51.090;-1.786;2023-10-13T05:22:13;31.60;;;11.50;;
53245;SDS011;39569;51.090;-1.786;2023-10-13T05:24:59;41.83;;;11.38;;
53245;SDS011;39569;51.090;-1.786;2023-10-13T05:27:43;39.72;;;12.25;;
53245;SDS011;39569;51.090;-1.786;2023-10-13T05:30:27;37.88;;;11.63;;
53245;SDS011;39569;51.090;-1.786;2023-10-13T05:33:20;32.10;;;13.38;;
53245;SDS011;39569;51.090;-1.786;2023-10-13T05:36:08;45.10;;;11.98;;
53245;SDS011;39569;51.090;-1.786;2023-10-13T05:38:53;29.13;;;12.20;;
53245;SDS011;39569;51.090;-1.786;2023-10-13T05:41:39;37.33;;;13.93;;
53245;SDS011;39569;51.090;-1.786;2023-10-13T05:44:23;35.30;;;11.82;;
53245;SDS011;39569;51.090;-1.786;2023-10-13T05:47:02;24.08;;;10.98;;
53245;SDS011;39569;51.090;-1.786;2023-10-13T05:49:43;26.63;;;10.88;;
53245;SDS011;39569;51.090;-1.786;2023-10-13T05:52:18;24.45;;;10.88;;
53245;SDS011;39569;51.090;-1.786;2023-10-13T05:54:45;31.92;;;10.45;;
53245;SDS011;39569;51.090;-1.786;2023-10-13T06:00:15;31.20;;;10.32;;
53245;SDS011;39569;51.090;-1.786;2023-10-13T06:03:00;24.15;;;10.45;;
53245;SDS011;39569;51.090;-1.786;2023-10-13T06:05:44;26.50;;;9.68;;
53245;SDS011;39569;51.090;-1.786;2023-10-13T06:08:28;38.10;;;12.07;;
53245;SDS011;39569;51.090;-1.786;2023-10-13T06:11:12;21.75;;;10.23;;
53245;SDS011;39569;51.090;-1.786;2023-10-13T06:13:57;29.15;;;12.63;;
53245;SDS011;39569;51.090;-1.786;2023-10-13T06:16:41;23.70;;;11.77;;
53245;SDS011;39569;51.090;-1.786;2023-10-13T06:19:25;39.53;;;11.65;;
53245;SDS011;39569;51.090;-1.786;2023-10-13T06:22:09;31.00;;;12.73;;
53245;SDS011;39569;51.090;-1.786;2023-10-13T06:24:53;31.77;;;10.60;;
53245;SDS011;39569;51.090;-1.786;2023-10-13T06:27:37;32.75;;;12.98;;
53245;SDS011;39569;51.090;-1.786;2023-10-13T06:30:23;40.30;;;12.38;;
53245;SDS011;39569;51.090;-1.786;2023-10-13T06:32:50;29.73;;;11.98;;
53245;SDS011;39569;51.090;-1.786;2023-10-13T06:35:18;25.30;;;11.50;;
53245;SDS011;39569;51.090;-1.786;2023-10-13T06:37:48;48.78;;;12.80;;
53245;SDS011;39569;51.090;-1.786;2023-10-13T06:40:15;31.85;;;11.27;;
53245;SDS011;39569;51.090;-1.786;2023-10-13T06:42:51;24.83;;;11.70;;
53245;SDS011;39569;51.090;-1.786;2023-10-13T06:45:18;20.77;;;11.70;;
53245;SDS011;39569;51.090;-1.786;2023-10-13T06:47:48;40.00;;;12.45;;
53245;SDS011;39569;51.090;-1.786;2023-10-13T06:50:18;27.02;;;11.23;;
53245;SDS011;39569;51.090;-1.786;2023-10-13T06:52:49;31.63;;;9.75;;
53245;SDS011;39569;51.090;-1.786;2023-10-13T06:55:19;32.45;;;11.15;;
53245;SDS011;39569;51.090;-1.786;2023-10-13T06:57:52;23.52;;;9.43;;
53245;SDS011;39569;51.090;-1.786;2023-10-13T07:00:20;26.48;;;10.15;;
53245;SDS011;39569;51.090;-1.786;2023-10-13T07:02:55;36.65;;;11.27;;
53245;SDS011;39569;51.090;-1.786;2023-10-13T07:05:33;29.10;;;9.68;;
53245;SDS011;39569;51.090;-1.786;2023-10-13T07:08:01;12.20;;;8.02;;
53245;SDS011;39569;51.090;-1.786;2023-10-13T07:10:29;16.48;;;9.45;;
53245;SDS011;39569;51.090;-1.786;2023-10-13T07:13:00;13.02;;;8.48;;
53245;SDS011;39569;51.090;-1.786;2023-10-13T07:15:34;23.92;;;10.05;;
53245;SDS011;39569;51.090;-1.786;2023-10-13T07:18:11;12.30;;;7.78;;
53245;SDS011;39569;51.090;-1.786;2023-10-13T07:20:40;25.15;;;10.93;;
53245;SDS011;39569;51.090;-1.786;2023-10-13T07:23:10;26.35;;;11.23;;
53245;SDS011;39569;51.090;-1.786;2023-10-13T07:25:43;22.00;;;9.77;;
53245;SDS011;39569;51.090;-1.786;2023-10-13T07:28:18;23.42;;;11.63;;
53245;SDS011;39569;51.090;-1.786;2023-10-13T07:30:45;20.73;;;11.70;;
53245;SDS011;39569;51.090;-1.786;2023-10-13T07:33:37;21.20;;;10.63;;
53245;SDS011;39569;51.090;-1.786;2023-10-13T07:36:06;21.00;;;11.60;;
53245;SDS011;39569;51.090;-1.786;2023-10-13T07:38:41;32.43;;;13.47;;
53245;SDS011;39569;51.090;-1.786;2023-10-13T07:41:08;23.75;;;11.73;;
53245;SDS011;39569;51.090;-1.786;2023-10-13T07:43:40;37.97;;;12.65;;
53245;SDS011;39569;51.090;-1.786;2023-10-13T07:46:07;26.85;;;10.77;;
53245;SDS011;39569;51.090;-1.786;2023-10-13T07:48:35;19.80;;;12.27;;
53245;SDS011;39569;51.090;-1.786;2023-10-13T07:51:06;27.70;;;13.15;;
53245;SDS011;39569;51.090;-1.786;2023-10-13T07:53:37;35.08;;;13.02;;
53245;SDS011;39569;51.090;-1.786;2023-10-13T07:56:06;29.25;;;13.45;;
53245;SDS011;39569;51.090;-1.786;2023-10-13T07:58:33;27.50;;;13.38;;
53245;SDS011;39569;51.090;-1.786;2023-10-13T08:01:11;18.92;;;10.77;;
53245;SDS011;39569;51.090;-1.786;2023-10-13T08:03:43;27.33;;;11.20;;
53245;SDS011;39569;51.090;-1.786;2023-10-13T08:06:11;31.95;;;13.13;;
53245;SDS011;39569;51.090;-1.786;2023-10-13T08:08:51;15.82;;;10.52;;
53245;SDS011;39569;51.090;-1.786;2023-10-13T08:11:20;23.88;;;12.25;;
53245;SDS011;39569;51.090;-1.786;2023-10-13T08:13:56;30.35;;;13.50;;
53245;SDS011;39569;51.090;-1.786;2023-10-13T08:16:25;24.95;;;12.90;;
53245;SDS011;39569;51.090;-1.786;2023-10-13T08:18:57;41.15;;;14.65;;
53245;SDS011;39569;51.090;-1.786;2023-10-13T08:21:26;29.83;;;13.60;;
53245;SDS011;39569;51.090;-1.786;2023-10-13T08:23:57;26.15;;;13.23;;
53245;SDS011;39569;51.090;-1.786;2023-10-13T08:26:27;39.00;;;14.73;;
53245;SDS011;39569;51.090;-1.786;2023-10-13T08:29:18;37.38;;;16.73;;
53245;SDS011;39569;51.090;-1.786;2023-10-13T08:32:16;28.55;;;14.88;;
53245;SDS011;39569;51.090;-1.786;2023-10-13T08:35:02;41.67;;;18.15;;
53245;SDS011;39569;51.090;-1.786;2023-10-13T08:37:47;32.60;;;16.58;;
53245;SDS011;39569;51.090;-1.786;2023-10-13T08:40:26;33.80;;;13.52;;
53245;SDS011;39569;51.090;-1.786;2023-10-13T08:43:11;25.25;;;15.23;;
53245;SDS011;39569;51.090;-1.786;2023-10-13T08:45:39;36.53;;;14.77;;
53245;SDS011;39569;51.090;-1.786;2023-10-13T08:51:01;31.33;;;14.90;;
53245;SDS011;39569;51.090;-1.786;2023-10-13T08:53:37;22.73;;;13.48;;
53245;SDS011;39569;51.090;-1.786;2023-10-13T08:56:17;35.38;;;14.73;;
53245;SDS011;39569;51.090;-1.786;2023-10-13T08:58:58;31.70;;;14.15;;
53245;SDS011;39569;51.090;-1.786;2023-10-13T09:01:35;34.75;;;16.08;;
53245;SDS011;39569;51.090;-1.786;2023-10-13T09:04:11;26.08;;;16.13;;
53245;SDS011;39569;51.090;-1.786;2023-10-13T09:06:49;23.52;;;13.48;;
53245;SDS011;39569;51.090;-1.786;2023-10-13T09:09:34;30.42;;;13.95;;
53245;SDS011;39569;51.090;-1.786;2023-10-13T09:12:25;27.85;;;13.73;;
53245;SDS011;39569;51.090;-1.786;2023-10-13T09:15:04;28.33;;;13.80;;
53245;SDS011;39569;51.090;-1.786;2023-10-13T09:17:32;33.75;;;13.55;;
53245;SDS011;39569;51.090;-1.786;2023-10-13T09:20:13;17.80;;;10.13;;
53245;SDS011;39569;51.090;-1.786;2023-10-13T09:22:52;31.70;;;14.30;;
53245;SDS011;39569;51.090;-1.786;2023-10-13T09:25:33;28.23;;;12.98;;
53245;SDS011;39569;51.090;-1.786;2023-10-13T09:28:00;21.10;;;12.40;;
53245;SDS011;39569;51.090;-1.786;2023-10-13T09:30:27;18.10;;;13.18;;
53245;SDS011;39569;51.090;-1.786;2023-10-13T09:32:59;26.08;;;11.82;;
53245;SDS011;39569;51.090;-1.786;2023-10-13T09:35:28;39.22;;;12.68;;
53245;SDS011;39569;51.090;-1.786;2023-10-13T09:37:57;31.50;;;12.45;;
53245;SDS011;39569;51.090;-1.786;2023-10-13T09:40:24;16.90;;;10.05;;
53245;SDS011;39569;51.090;-1.786;2023-10-13T09:42:51;20.10;;;11.13;;
53245;SDS011;39569;51.090;-1.786;2023-10-13T09:45:17;23.88;;;12.23;;
53245;SDS011;39569;51.090;-1.786;2023-10-13T09:47:52;23.42;;;11.43;;
53245;SDS011;39569;51.090;-1.786;2023-10-13T09:50:22;25.50;;;10.98;;
53245;SDS011;39569;51.090;-1.786;2023-10-13T09:53:00;23.55;;;11.93;;
53245;SDS011;39569;51.090;-1.786;2023-10-13T09:55:26;20.40;;;12.93;;
53245;SDS011;39569;51.090;-1.786;2023-10-13T09:57:58;30.83;;;12.93;;
53245;SDS011;39569;51.090;-1.786;2023-10-13T10:00:35;36.83;;;13.45;;
53245;SDS011;39569;51.090;-1.786;2023-10-13T10:03:14;23.88;;;10.77;;
53245;SDS011;39569;51.090;-1.786;2023-10-13T10:05:54;36.50;;;14.13;;
53245;SDS011;39569;51.090;-1.786;2023-10-13T10:08:29;27.75;;;11.63;;
53245;SDS011;39569;51.090;-1.786;2023-10-13T10:11:18;39.00;;;11.82;;
53245;SDS011;39569;51.090;-1.786;2023-10-13T10:13:53;22.10;;;10.60;;
53245;SDS011;39569;51.090;-1.786;2023-10-13T10:16:29;19.77;;;10.30;;
53245;SDS011;39569;51.090;-1.786;2023-10-13T10:19:07;21.10;;;9.90;;
53245;SDS011;39569;51.090;-1.786;2023-10-13T10:21:34;15.82;;;7.93;;
53245;SDS011;39569;51.090;-1.786;2023-10-13T10:24:12;19.83;;;9.43;;
53245;SDS011;39569;51.090;-1.786;2023-10-13T10:26:49;24.65;;;9.13;;
53245;SDS011;39569;51.090;-1.786;2023-10-13T10:29:17;21.70;;;10.43;;
53245;SDS011;39569;51.090;-1.786;2023-10-13T10:31:44;22.15;;;8.95;;
53245;SDS011;39569;51.090;-1.786;2023-10-13T10:34:14;33.28;;;9.25;;
53245;SDS011;39569;51.090;-1.786;2023-10-13T10:36:45;26.35;;;10.35;;
53245;SDS011;39569;51.090;-1.786;2023-10-13T10:39:15;20.67;;;8.50;;
53245;SDS011;39569;51.090;-1.786;2023-10-13T10:41:42;16.75;;;7.53;;
53245;SDS011;39569;51.090;-1.786;2023-10-13T10:44:17;27.77;;;8.88;;
53245;SDS011;39569;51.090;-1.786;2023-10-13T10:46:47;15.32;;;8.98;;
53245;SDS011;39569;51.090;-1.786;2023-10-13T10:49:23;24.38;;;9.13;;
53245;SDS011;39569;51.090;-1.786;2023-10-13T10:51:57;21.98;;;10.05;;
53245;SDS011;39569;51.090;-1.786;2023-10-13T10:54:30;27.80;;;10.27;;
53245;SDS011;39569;51.090;-1.786;2023-10-13T10:56:58;16.10;;;6.93;;
53245;SDS011;39569;51.090;-1.786;2023-10-13T10:59:36;19.27;;;8.70;;
53245;SDS011;39569;51.090;-1.786;2023-10-13T11:02:04;33.28;;;8.40;;
53245;SDS011;39569;51.090;-1.786;2023-10-13T11:04:34;23.08;;;7.57;;
53245;SDS011;39569;51.090;-1.786;2023-10-13T11:07:06;24.77;;;9.30;;
53245;SDS011;39569;51.090;-1.786;2023-10-13T11:09:35;20.48;;;8.23;;
53245;SDS011;39569;51.090;-1.786;2023-10-13T11:12:11;18.30;;;8.50;;
53245;SDS011;39569;51.090;-1.786;2023-10-13T11:14:49;24.27;;;8.48;;
53245;SDS011;39569;51.090;-1.786;2023-10-13T11:17:27;24.42;;;7.20;;
53245;SDS011;39569;51.090;-1.786;2023-10-13T11:20:07;15.00;;;5.65;;
53245;SDS011;39569;51.090;-1.786;2023-10-13T11:22:41;11.82;;;5.47;;
53245;SDS011;39569;51.090;-1.786;2023-10-13T11:25:19;10.27;;;4.47;;
53245;SDS011;39569;51.090;-1.786;2023-10-13T11:27:48;16.35;;;5.13;;
53245;SDS011;39569;51.090;-1.786;2023-10-13T11:30:23;19.15;;;6.80;;
53245;SDS011;39569;51.090;-1.786;2023-10-13T11:33:06;18.80;;;6.05;;
53245;SDS011;39569;51.090;-1.786;2023-10-13T11:35:34;26.80;;;6.57;;
53245;SDS011;39569;51.090;-1.786;2023-10-13T11:38:19;21.60;;;6.20;;
53245;SDS011;39569;51.090;-1.786;2023-10-13T11:40:53;15.63;;;5.50;;
53245;SDS011;39569;51.090;-1.786;2023-10-13T11:43:34;11.77;;;5.40;;
53245;SDS011;39569;51.090;-1.786;2023-10-13T11:46:17;11.05;;;5.05;;
53245;SDS011;39569;51.090;-1.786;2023-10-13T11:49:06;21.15;;;4.45;;
53245;SDS011;39569;51.090;-1.786;2023-10-13T11:51:43;10.95;;;4.10;;
53245;SDS011;39569;51.090;-1.786;2023-10-13T11:54:11;8.77;;;3.45;;
53245;SDS011;39569;51.090;-1.786;2023-10-13T11:56:39;14.73;;;4.63;;
53245;SDS011;39569;51.090;-1.786;2023-10-13T11:59:06;15.43;;;3.80;;
53245;SDS011;39569;51.090;-1.786;2023-10-13T12:01:41;14.65;;;3.83;;
53245;SDS011;39569;51.090;-1.786;2023-10-13T12:04:23;12.15;;;4.28;;
53245;SDS011;39569;51.090;-1.786;2023-10-13T12:07:08;10.48;;;4.28;;
53245;SDS011;39569;51.090;-1.786;2023-10-13T12:09:47;16.63;;;4.47;;
53245;SDS011;39569;51.090;-1.786;2023-10-13T12:12:33;15.85;;;3.72;;
53245;SDS011;39569;51.090;-1.786;2023-10-13T12:15:06;17.15;;;5.15;;
53245;SDS011;39569;51.090;-1.786;2023-10-13T12:17:39;9.25;;;4.20;;
53245;SDS011;39569;51.090;-1.786;2023-10-13T12:20:10;10.23;;;4.80;;
53245;SDS011;39569;51.090;-1.786;2023-10-13T12:22:43;18.48;;;5.10;;
53245;SDS011;39569;51.090;-1.786;2023-10-13T12:25:20;10.60;;;3.97;;
53245;SDS011;39569;51.090;-1.786;2023-10-13T12:27:51;12.70;;;4.32;;
53245;SDS011;39569;51.090;-1.786;2023-10-13T12:30:22;11.93;;;4.82;;
53245;SDS011;39569;51.090;-1.786;2023-10-13T12:33:01;11.40;;;4.20;;
53245;SDS011;39569;51.090;-1.786;2023-10-13T12:35:34;17.35;;;4.95;;
53245;SDS011;39569;51.090;-1.786;2023-10-13T12:38:10;12.05;;;4.38;;
53245;SDS011;39569;51.090;-1.786;2023-10-13T12:41:04;10.07;;;3.90;;
53245;SDS011;39569;51.090;-1.786;2023-10-13T12:43:50;10.18;;;3.78;;
53245;SDS011;39569;51.090;-1.786;2023-10-13T12:46:33;14.63;;;4.97;;
53245;SDS011;39569;51.090;-1.786;2023-10-13T12:49:17;13.50;;;3.30;;
53245;SDS011;39569;51.090;-1.786;2023-10-13T12:52:04;9.55;;;3.83;;
53245;SDS011;39569;51.090;-1.786;2023-10-13T12:54:41;16.55;;;4.70;;
53245;SDS011;39569;51.090;-1.786;2023-10-13T12:57:11;16.83;;;4.75;;
53245;SDS011;39569;51.090;-1.786;2023-10-13T12:59:40;14.95;;;5.50;;
53245;SDS011;39569;51.090;-1.786;2023-10-13T13:02:06;8.05;;;2.95;;
53245;SDS011;39569;51.090;-1.786;2023-10-13T13:04:39;14.68;;;4.45;;
53245;SDS011;39569;51.090;-1.786;2023-10-13T13:07:09;14.15;;;4.68;;
53245;SDS011;39569;51.090;-1.786;2023-10-13T13:09:38;20.05;;;6.43;;
53245;SDS011;39569;51.090;-1.786;2023-10-13T13:12:05;18.25;;;5.70;;
53245;SDS011;39569;51.090;-1.786;2023-10-13T13:14:32;15.18;;;7.38;;
53245;SDS011;39569;51.090;-1.786;2023-10-13T13:17:01;16.65;;;6.05;;
53245;SDS011;39569;51.090;-1.786;2023-10-13T13:19:31;13.13;;;4.90;;
53245;SDS011;39569;51.090;-1.786;2023-10-13T13:22:01;14.07;;;4.97;;
53245;SDS011;39569;51.090;-1.786;2023-10-13T13:24:28;12.23;;;6.10;;
53245;SDS011;39569;51.090;-1.786;2023-10-13T13:26:56;18.90;;;5.10;;
53245;SDS011;39569;51.090;-1.786;2023-10-13T13:29:27;12.98;;;3.65;;
53245;SDS011;39569;51.090;-1.786;2023-10-13T13:31:55;11.75;;;4.22;;
53245;SDS011;39569;51.090;-1.786;2023-10-13T13:34:23;17.77;;;4.93;;
53245;SDS011;39569;51.090;-1.786;2023-10-13T13:36:51;12.13;;;4.38;;
53245;SDS011;39569;51.090;-1.786;2023-10-13T13:39:19;8.73;;;3.50;;
53245;SDS011;39569;51.090;-1.786;2023-10-13T13:41:54;7.45;;;2.90;;
53245;SDS011;39569;51.090;-1.786;2023-10-13T13:44:22;8.88;;;3.40;;
53245;SDS011;39569;51.090;-1.786;2023-10-13T13:46:54;9.15;;;2.53;;
53245;SDS011;39569;51.090;-1.786;2023-10-13T13:49:24;10.80;;;3.60;;
53245;SDS011;39569;51.090;-1.786;2023-10-13T13:52:04;13.07;;;2.70;;
53245;SDS011;39569;51.090;-1.786;2023-10-13T13:54:31;6.05;;;2.75;;
53245;SDS011;39569;51.090;-1.786;2023-10-13T13:56:58;9.25;;;2.78;;
53245;SDS011;39569;51.090;-1.786;2023-10-13T13:59:25;10.57;;;2.88;;
53245;SDS011;39569;51.090;-1.786;2023-10-13T14:01:58;12.88;;;1.77;;
53245;SDS011;39569;51.090;-1.786;2023-10-13T14:04:32;8.05;;;3.22;;
53245;SDS011;39569;51.090;-1.786;2023-10-13T14:06:59;5.60;;;2.67;;
53245;SDS011;39569;51.090;-1.786;2023-10-13T14:09:32;6.10;;;3.15;;
53245;SDS011;39569;51.090;-1.786;2023-10-13T14:12:05;4.88;;;2.60;;
53245;SDS011;39569;51.090;-1.786;2023-10-13T14:14:50;9.57;;;2.58;;
53245;SDS011;39569;51.090;-1.786;2023-10-13T14:17:21;10.60;;;3.25;;
53245;SDS011;39569;51.090;-1.786;2023-10-13T14:19:55;10.82;;;2.13;;
53245;SDS011;39569;51.090;-1.786;2023-10-13T14:22:22;10.30;;;2.78;;
53245;SDS011;39569;51.090;-1.786;2023-10-13T14:24:51;13.18;;;4.05;;
53245;SDS011;39569;51.090;-1.786;2023-10-13T14:27:20;13.00;;;3.83;;
53245;SDS011;39569;51.090;-1.786;2023-10-13T14:29:48;5.82;;;2.63;;
53245;SDS011;39569;51.090;-1.786;2023-10-13T14:32:18;7.00;;;3.22;;
53245;SDS011;39569;51.090;-1.786;2023-10-13T14:34:49;7.70;;;2.85;;
53245;SDS011;39569;51.090;-1.786;2023-10-13T14:37:23;13.57;;;3.13;;
53245;SDS011;39569;51.090;-1.786;2023-10-13T14:39:54;8.98;;;2.97;;
53245;SDS011;39569;51.090;-1.786;2023-10-13T14:42:23;11.35;;;4.07;;
53245;SDS011;39569;51.090;-1.786;2023-10-13T14:44:50;11.02;;;3.85;;
53245;SDS011;39569;51.090;-1.786;2023-10-13T14:47:20;11.75;;;3.78;;
53245;SDS011;39569;51.090;-1.786;2023-10-13T14:49:50;20.50;;;4.18;;
53245;SDS011;39569;51.090;-1.786;2023-10-13T14:52:19;12.18;;;4.22;;
53245;SDS011;39569;51.090;-1.786;2023-10-13T14:54:47;17.27;;;5.03;;
53245;SDS011;39569;51.090;-1.786;2023-10-13T14:57:20;19.73;;;3.90;;
53245;SDS011;39569;51.090;-1.786;2023-10-13T14:59:49;12.73;;;3.20;;
53245;SDS011;39569;51.090;-1.786;2023-10-13T15:02:17;10.32;;;3.25;;